createdAt,value
2023-04-07T00:02:13.453Z,0.98
2023-04-07T00:04:41.595Z,0.80
2023-04-07T00:07:09.587Z,0.80
2023-04-07T00:09:37.561Z,0.90
2023-04-07T00:12:05.290Z,1.00
2023-04-07T00:14:32.795Z,1.13
2023-04-07T00:17:00.264Z,0.50
2023-04-07T00:19:27.788Z,0.90
2023-04-07T00:21:55.220Z,0.85
2023-04-07T00:24:33.460Z,0.98
2023-04-07T00:27:01.986Z,0.93
2023-04-07T00:29:29.501Z,0.90
2023-04-07T00:31:57.072Z,0.80
2023-04-07T00:34:24.695Z,0.90
2023-04-07T00:36:55.163Z,0.90
2023-04-07T00:39:23.225Z,0.95
2023-04-07T00:41:51.610Z,0.82
2023-04-07T00:44:19.180Z,1.00
2023-04-07T00:46:48.789Z,0.80
2023-04-07T00:49:20.145Z,0.90
2023-04-07T00:51:47.774Z,0.98
2023-04-07T00:54:15.773Z,0.70
2023-04-07T00:56:43.854Z,1.17
2023-04-07T00:59:11.605Z,0.88
2023-04-07T01:01:46.826Z,0.80
2023-04-07T01:04:28.824Z,0.80
2023-04-07T01:07:04.542Z,0.90
2023-04-07T01:10:01.024Z,0.95
2023-04-07T01:12:38.012Z,0.88
2023-04-07T01:17:46.642Z,0.90
2023-04-07T01:20:18.185Z,0.85
2023-04-07T01:22:57.806Z,1.13
2023-04-07T01:25:54.137Z,1.02
2023-04-07T01:28:40.065Z,1.00
2023-04-07T01:31:11.076Z,0.90
2023-04-07T01:33:40.615Z,1.27
2023-04-07T01:36:09.964Z,0.90
2023-04-07T01:38:39.399Z,0.90
2023-04-07T01:41:08.913Z,1.00
2023-04-07T01:43:38.169Z,1.48
2023-04-07T01:46:05.842Z,1.63
2023-04-07T01:48:36.448Z,1.23
2023-04-07T01:51:06.490Z,1.38
2023-04-07T01:53:38.204Z,1.10
2023-04-07T01:56:06.096Z,0.88
2023-04-07T01:58:35.692Z,1.00
2023-04-07T02:01:05.325Z,1.00
2023-04-07T02:07:49.008Z,1.00
2023-04-07T02:10:20.716Z,1.23
2023-04-07T02:12:49.507Z,1.30
2023-04-07T02:15:20.080Z,1.40
2023-04-07T02:17:52.326Z,1.27
2023-04-07T02:20:21.288Z,1.10
2023-04-07T02:22:50.479Z,1.17
2023-04-07T02:25:30.176Z,0.95
2023-04-07T02:27:59.324Z,0.80
2023-04-07T02:30:27.328Z,1.00
2023-04-07T02:32:58.913Z,1.10
2023-04-07T02:35:26.568Z,0.90
2023-04-07T02:37:54.320Z,1.20
2023-04-07T02:40:21.858Z,1.10
2023-04-07T02:42:49.333Z,1.10
2023-04-07T02:45:16.886Z,1.02
2023-04-07T02:47:44.374Z,1.20
2023-04-07T02:50:12.040Z,1.05
2023-04-07T02:52:39.619Z,1.15
2023-04-07T02:55:12.493Z,1.10
2023-04-07T02:57:40.121Z,1.30
2023-04-07T03:00:15.201Z,1.27
2023-04-07T03:03:03.112Z,1.30
2023-04-07T03:05:34.654Z,1.38
2023-04-07T03:08:03.325Z,1.30
2023-04-07T03:10:30.804Z,1.27
2023-04-07T03:12:58.493Z,1.10
2023-04-07T03:15:26.365Z,1.00
2023-04-07T03:17:53.892Z,1.23
2023-04-07T03:20:21.572Z,1.50
2023-04-07T03:22:49.091Z,1.15
2023-04-07T03:27:51.886Z,1.17
2023-04-07T03:30:20.221Z,1.25
2023-04-07T03:32:47.805Z,1.20
2023-04-07T03:35:15.576Z,1.27
2023-04-07T03:37:44.969Z,1.15
2023-04-07T03:40:16.651Z,1.45
2023-04-07T03:42:47.201Z,1.20
2023-04-07T03:45:17.726Z,1.20
2023-04-07T03:47:50.277Z,1.17
2023-04-07T03:50:18.470Z,0.90
2023-04-07T03:53:00.917Z,0.90
2023-04-07T03:55:31.467Z,1.05
2023-04-07T03:58:05.532Z,0.80
2023-04-07T04:00:35.941Z,0.90
2023-04-07T04:03:11.985Z,1.20
2023-04-07T04:06:00.622Z,1.20
2023-04-07T04:08:31.435Z,1.20
2023-04-07T04:10:59.039Z,0.98
2023-04-07T04:13:32.553Z,0.85
2023-04-07T04:16:05.272Z,1.00
2023-04-07T04:18:33.607Z,1.08
2023-04-07T04:21:01.765Z,1.27
2023-04-07T04:23:29.856Z,1.08
2023-04-07T04:26:00.476Z,1.05
2023-04-07T04:28:29.087Z,1.10
2023-04-07T04:30:56.851Z,1.08
2023-04-07T04:33:24.858Z,1.00
2023-04-07T04:35:55.684Z,1.40
2023-04-07T04:38:24.780Z,1.20
2023-04-07T04:40:57.616Z,0.82
2023-04-07T04:43:29.142Z,0.98
2023-04-07T04:45:57.312Z,1.00
2023-04-07T04:48:27.599Z,1.20
2023-04-07T04:50:55.142Z,1.00
2023-04-07T04:53:22.976Z,1.00
2023-04-07T04:55:58.305Z,1.10
2023-04-07T04:58:36.394Z,0.90
2023-04-07T05:01:04.096Z,1.15
2023-04-07T05:03:38.260Z,0.85
2023-04-07T05:06:13.672Z,1.10
2023-04-07T05:08:43.512Z,0.90
2023-04-07T05:11:13.201Z,0.82
2023-04-07T05:13:42.902Z,1.00
2023-04-07T05:16:12.000Z,0.98
2023-04-07T05:18:39.669Z,1.38
2023-04-07T05:21:07.170Z,1.10
2023-04-07T05:23:36.747Z,1.35
2023-04-07T05:26:06.585Z,1.20
2023-04-07T05:28:34.210Z,1.35
2023-04-07T05:31:07.699Z,1.30
2023-04-07T05:33:36.519Z,1.38
2023-04-07T05:36:04.360Z,1.75
2023-04-07T05:38:33.235Z,1.60
2023-04-07T05:41:08.928Z,1.00
2023-04-07T05:43:37.431Z,1.20
2023-04-07T05:46:06.163Z,1.48
2023-04-07T05:48:38.010Z,1.30
2023-04-07T05:51:05.606Z,1.13
2023-04-07T05:53:33.093Z,1.30
2023-04-07T05:56:00.756Z,1.40
2023-04-07T05:58:54.294Z,1.02
2023-04-07T06:01:21.959Z,1.27
2023-04-07T06:03:51.372Z,0.85
2023-04-07T06:06:24.955Z,1.30
2023-04-07T06:08:52.781Z,1.10
2023-04-07T06:11:20.929Z,1.02
2023-04-07T06:13:48.728Z,1.05
2023-04-07T06:16:17.471Z,1.02
2023-04-07T06:18:46.479Z,1.02
2023-04-07T06:21:14.005Z,0.90
2023-04-07T06:23:41.455Z,1.00
2023-04-07T06:26:13.543Z,1.13
2023-04-07T06:28:41.382Z,1.17
2023-04-07T06:31:09.431Z,0.90
2023-04-07T06:33:38.044Z,1.10
2023-04-07T06:36:05.624Z,0.85
2023-04-07T06:38:33.293Z,0.90
2023-04-07T06:41:01.069Z,1.20
2023-04-07T06:43:28.864Z,1.00
2023-04-07T06:48:29.362Z,1.40
2023-04-07T06:50:56.899Z,1.30
2023-04-07T06:53:24.317Z,1.00
2023-04-07T06:55:51.706Z,1.02
2023-04-07T06:58:19.214Z,1.10
2023-04-07T07:00:46.628Z,1.02
2023-04-07T07:03:14.280Z,1.25
2023-04-07T07:05:41.881Z,1.08
2023-04-07T07:08:09.276Z,1.35
2023-04-07T07:10:36.727Z,1.10
2023-04-07T07:13:04.209Z,1.27
2023-04-07T07:15:31.729Z,1.05
2023-04-07T07:17:59.325Z,1.20
2023-04-07T07:20:26.882Z,1.90
2023-04-07T07:22:54.480Z,1.05
2023-04-07T07:25:22.086Z,1.00
2023-04-07T07:27:53.592Z,1.15
2023-04-07T07:30:22.722Z,1.08
2023-04-07T07:32:51.558Z,1.20
2023-04-07T07:35:20.259Z,1.55
2023-04-07T07:37:47.993Z,1.00
2023-04-07T07:40:15.861Z,0.90
2023-04-07T07:42:43.561Z,1.20
2023-04-07T07:45:12.395Z,1.00
2023-04-07T07:47:40.890Z,1.10
2023-04-07T07:50:08.634Z,1.52
2023-04-07T07:52:36.144Z,1.52
2023-04-07T07:55:03.974Z,1.20
2023-04-07T07:57:32.228Z,1.45
2023-04-07T07:59:59.736Z,1.20
2023-04-07T08:02:31.681Z,1.00
2023-04-07T08:04:59.293Z,1.30
2023-04-07T08:07:27.721Z,1.10
2023-04-07T08:09:55.162Z,1.10
2023-04-07T08:12:22.881Z,1.10
2023-04-07T08:14:50.913Z,1.20
2023-04-07T08:17:18.520Z,1.20
2023-04-07T08:19:46.870Z,1.27
2023-04-07T08:22:14.399Z,1.30
2023-04-07T08:24:42.299Z,1.23
2023-04-07T08:27:09.780Z,1.23
2023-04-07T08:29:37.227Z,1.20
2023-04-07T08:32:04.808Z,1.05
2023-04-07T08:34:32.631Z,1.08
2023-04-07T08:37:00.156Z,1.33
2023-04-07T08:39:28.527Z,1.15
2023-04-07T08:41:57.406Z,1.30
2023-04-07T08:44:27.567Z,1.08
2023-04-07T08:46:57.132Z,1.35
2023-04-07T08:49:27.936Z,1.17
2023-04-07T08:51:57.267Z,1.00
2023-04-07T08:54:24.833Z,1.00
2023-04-07T08:56:53.087Z,1.05
2023-04-07T08:59:26.936Z,1.20
2023-04-07T09:01:55.740Z,1.10
2023-04-07T09:04:24.972Z,1.50
2023-04-07T09:06:52.474Z,1.58
2023-04-07T09:09:19.920Z,1.38
2023-04-07T09:11:49.106Z,1.40
2023-04-07T09:14:16.793Z,1.20
2023-04-07T09:16:44.533Z,1.30
2023-04-07T09:19:12.013Z,1.08
2023-04-07T09:21:50.650Z,1.15
2023-04-07T09:24:26.474Z,1.10
2023-04-07T09:27:20.441Z,1.20
2023-04-07T09:29:48.512Z,1.45
2023-04-07T09:32:41.848Z,1.00
2023-04-07T09:35:12.369Z,1.10
2023-04-07T09:37:39.975Z,1.30
2023-04-07T09:40:08.192Z,1.40
2023-04-07T09:42:38.211Z,1.33
2023-04-07T09:45:06.129Z,1.30
2023-04-07T09:47:33.645Z,1.17
2023-04-07T09:50:07.135Z,1.17
2023-04-07T09:52:54.200Z,1.02
2023-04-07T09:55:23.596Z,1.45
2023-04-07T09:57:51.996Z,1.10
2023-04-07T10:00:19.683Z,1.40
2023-04-07T10:02:48.345Z,1.40
2023-04-07T10:05:15.997Z,1.38
2023-04-07T10:07:43.978Z,1.17
2023-04-07T10:10:11.746Z,1.30
2023-04-07T10:12:41.729Z,1.20
2023-04-07T10:15:12.916Z,1.33
2023-04-07T10:17:41.864Z,1.25
2023-04-07T10:20:11.456Z,1.10
2023-04-07T10:22:42.192Z,1.10
2023-04-07T10:25:11.916Z,1.00
2023-04-07T10:27:54.211Z,1.00
2023-04-07T10:30:27.369Z,1.05
2023-04-07T10:32:55.726Z,1.07
2023-04-07T10:35:24.019Z,1.00
2023-04-07T10:38:16.940Z,1.17
2023-04-07T10:40:45.122Z,1.20
2023-04-07T10:43:12.772Z,1.05
2023-04-07T10:45:49.355Z,1.40
2023-04-07T10:48:18.639Z,1.40
2023-04-07T10:50:47.188Z,1.40
2023-04-07T10:53:17.854Z,1.35
2023-04-07T10:55:55.159Z,1.33
2023-04-07T10:58:33.039Z,1.08
2023-04-07T11:01:00.883Z,1.05
2023-04-07T11:03:30.241Z,1.10
2023-04-07T11:06:11.687Z,1.08
2023-04-07T11:08:46.226Z,1.38
2023-04-07T11:11:17.819Z,1.20
2023-04-07T11:13:47.768Z,1.10
2023-04-07T11:16:17.705Z,1.10
2023-04-07T11:18:48.413Z,1.20
2023-04-07T11:21:20.177Z,1.50
2023-04-07T11:23:48.611Z,1.67
2023-04-07T11:26:16.750Z,1.20
2023-04-07T11:28:50.184Z,1.75
2023-04-07T11:31:29.056Z,1.73
2023-04-07T11:33:59.503Z,1.40
2023-04-07T11:36:37.165Z,1.40
2023-04-07T11:39:04.796Z,1.65
2023-04-07T11:41:33.875Z,1.92
2023-04-07T11:44:12.063Z,1.90
2023-04-07T11:46:59.226Z,1.67
2023-04-07T11:49:29.105Z,1.77
2023-04-07T11:52:05.983Z,1.73
2023-04-07T11:54:50.839Z,1.50
2023-04-07T11:57:26.731Z,1.55
2023-04-07T12:00:08.310Z,1.50
2023-04-07T12:02:36.313Z,1.40
2023-04-07T12:05:07.510Z,1.50
2023-04-07T12:07:35.021Z,2.00
2023-04-07T12:10:27.630Z,1.30
2023-04-07T12:12:55.566Z,1.30
2023-04-07T12:15:24.487Z,1.08
2023-04-07T12:17:52.096Z,1.60
2023-04-07T12:20:19.659Z,2.10
2023-04-07T12:22:47.670Z,1.52
2023-04-07T12:25:15.266Z,1.27
2023-04-07T12:27:44.052Z,1.50
2023-04-07T12:30:16.452Z,1.50
2023-04-07T12:32:44.038Z,1.40
2023-04-07T12:35:11.518Z,1.15
2023-04-07T12:37:39.048Z,1.27
2023-04-07T12:40:07.429Z,1.20
2023-04-07T12:42:35.006Z,1.25
2023-04-07T12:45:03.390Z,1.58
2023-04-07T12:47:32.396Z,1.40
2023-04-07T12:50:00.757Z,2.15
2023-04-07T12:52:28.556Z,1.80
2023-04-07T12:54:57.404Z,1.73
2023-04-07T12:57:25.425Z,1.63
2023-04-07T12:59:53.852Z,1.80
2023-04-07T13:02:21.989Z,1.52
2023-04-07T13:04:49.601Z,1.92
2023-04-07T13:07:17.207Z,1.60
2023-04-07T13:09:44.714Z,2.03
2023-04-07T13:12:12.797Z,1.42
2023-04-07T13:14:52.926Z,2.10
2023-04-07T13:17:25.166Z,1.70
2023-04-07T13:19:52.947Z,1.50
2023-04-07T13:22:22.274Z,1.50
2023-04-07T13:24:51.927Z,1.45
2023-04-07T13:27:19.545Z,1.60
2023-04-07T13:29:47.157Z,1.52
2023-04-07T13:32:16.269Z,1.38
2023-04-07T13:34:44.464Z,1.70
2023-04-07T13:37:12.093Z,2.05
2023-04-07T13:39:39.649Z,2.17
2023-04-07T13:42:07.369Z,1.98
2023-04-07T13:44:37.313Z,3.47
2023-04-07T13:47:57.737Z,4.00
2023-04-07T13:50:41.306Z,2.60
2023-04-07T13:53:09.010Z,1.67
2023-04-07T13:55:37.065Z,1.52
2023-04-07T13:58:04.577Z,1.60
2023-04-07T14:00:32.356Z,1.45
2023-04-07T14:03:00.112Z,1.88
2023-04-07T14:05:30.948Z,1.80
2023-04-07T14:08:00.590Z,2.60
2023-04-07T14:10:28.261Z,2.53
2023-04-07T14:12:58.343Z,2.60
2023-04-07T14:15:26.625Z,1.63
2023-04-07T14:17:54.238Z,2.10
2023-04-07T14:20:21.829Z,1.60
2023-04-07T14:22:49.440Z,1.80
2023-04-07T14:25:17.400Z,2.20
2023-04-07T14:27:45.014Z,2.78
2023-04-07T14:30:14.706Z,1.52
2023-04-07T14:32:42.272Z,1.80
2023-04-07T14:35:09.994Z,1.80
2023-04-07T14:37:37.478Z,1.55
2023-04-07T14:40:05.858Z,1.27
2023-04-07T14:42:33.784Z,1.40
2023-04-07T14:45:02.104Z,1.65
2023-04-07T14:47:30.867Z,1.90
2023-04-07T14:49:58.396Z,2.33
2023-04-07T14:52:26.284Z,3.28
2023-04-07T14:54:53.899Z,1.83
2023-04-07T14:57:22.477Z,1.48
2023-04-07T14:59:50.078Z,1.95
2023-04-07T15:02:17.666Z,1.80
2023-04-07T15:04:45.359Z,1.52
2023-04-07T15:07:12.979Z,2.13
2023-04-07T15:09:40.742Z,1.80
2023-04-07T15:12:08.290Z,2.00
2023-04-07T15:14:35.978Z,3.90
2023-04-07T15:17:03.609Z,1.90
2023-04-07T15:19:31.175Z,2.17
2023-04-07T15:21:58.665Z,1.80
2023-04-07T15:24:26.237Z,2.05
2023-04-07T15:26:54.007Z,2.00
2023-04-07T15:29:21.638Z,2.05
2023-04-07T15:31:49.272Z,1.70
2023-04-07T15:34:16.764Z,1.88
2023-04-07T15:36:44.199Z,1.80
2023-04-07T15:39:11.780Z,1.70
2023-04-07T15:41:39.319Z,1.90
2023-04-07T15:44:06.986Z,1.80
2023-04-07T15:46:34.556Z,2.22
2023-04-07T15:49:02.168Z,2.75
2023-04-07T15:51:30.160Z,2.50
2023-04-07T15:53:57.712Z,2.05
2023-04-07T15:56:25.376Z,4.13
2023-04-07T15:58:52.941Z,2.58
2023-04-07T16:01:20.801Z,2.05
2023-04-07T16:03:48.789Z,2.10
2023-04-07T16:06:16.891Z,1.70
2023-04-07T16:08:45.087Z,2.38
2023-04-07T16:11:12.630Z,2.20
2023-04-07T16:13:40.201Z,2.00
2023-04-07T16:16:08.432Z,1.85
2023-04-07T16:18:36.038Z,1.70
2023-04-07T16:21:07.918Z,2.30
2023-04-07T16:23:35.625Z,1.60
2023-04-07T16:26:03.471Z,2.58
2023-04-07T16:28:33.243Z,2.13
2023-04-07T16:31:02.870Z,2.78
2023-04-07T16:36:29.295Z,2.20
2023-04-07T16:38:57.929Z,1.85
2023-04-07T16:41:25.456Z,1.90
2023-04-07T16:43:53.038Z,1.98
2023-04-07T16:46:20.697Z,2.50
2023-04-07T16:48:48.579Z,2.10
2023-04-07T16:51:19.761Z,1.80
2023-04-07T16:53:47.927Z,2.08
2023-04-07T16:56:20.229Z,1.80
2023-04-07T16:58:51.585Z,1.92
2023-04-07T17:01:19.660Z,1.83
2023-04-07T17:03:51.998Z,3.00
2023-04-07T17:06:19.780Z,2.13
2023-04-07T17:08:49.171Z,2.13
2023-04-07T17:11:16.863Z,2.72
2023-04-07T17:13:44.400Z,2.35
2023-04-07T17:16:15.089Z,1.90
2023-04-07T17:18:42.910Z,1.55
2023-04-07T17:21:10.446Z,1.60
2023-04-07T17:23:38.701Z,1.70
2023-04-07T17:26:06.344Z,1.60
2023-04-07T17:28:33.778Z,1.60
2023-04-07T17:31:04.343Z,1.85
2023-04-07T17:33:32.165Z,1.90
2023-04-07T17:36:03.368Z,3.30
2023-04-07T17:38:31.328Z,2.20
2023-04-07T17:41:00.041Z,2.10
2023-04-07T17:43:28.892Z,2.10
2023-04-07T17:45:56.965Z,1.80
2023-04-07T17:48:24.741Z,2.10
2023-04-07T17:50:52.274Z,2.10
2023-04-07T17:53:20.164Z,2.45
2023-04-07T17:55:48.121Z,1.70
2023-04-07T17:58:15.929Z,2.10
2023-04-07T18:00:43.394Z,2.03
2023-04-07T18:03:12.041Z,2.13
2023-04-07T18:05:46.973Z,2.05
2023-04-07T18:08:15.163Z,2.03
2023-04-07T18:10:42.929Z,1.73
2023-04-07T18:13:10.566Z,1.45
2023-04-07T18:15:38.190Z,2.38
2023-04-07T18:18:06.114Z,1.30
2023-04-07T18:20:33.942Z,1.92
2023-04-07T18:23:04.361Z,1.60
2023-04-07T18:25:31.969Z,2.70
2023-04-07T18:27:59.418Z,3.05
2023-04-07T18:30:27.491Z,4.20
2023-04-07T18:32:55.023Z,4.15
2023-04-07T18:35:22.645Z,4.47
2023-04-07T18:37:53.947Z,4.00
2023-04-07T18:40:21.472Z,4.60
2023-04-07T18:42:48.992Z,3.72
2023-04-07T18:45:16.717Z,5.03
2023-04-07T18:47:44.509Z,4.75
2023-04-07T18:50:12.308Z,6.10
2023-04-07T18:52:39.851Z,7.15
2023-04-07T18:55:09.083Z,5.68
2023-04-07T18:57:36.657Z,4.32
2023-04-07T19:00:04.455Z,5.53
2023-04-07T19:02:32.098Z,5.57
2023-04-07T19:04:59.748Z,5.85
2023-04-07T19:07:27.232Z,6.00
2023-04-07T19:09:54.853Z,5.55
2023-04-07T19:12:22.575Z,4.80
2023-04-07T19:14:50.077Z,4.40
2023-04-07T19:17:17.847Z,6.00
2023-04-07T19:19:45.293Z,5.95
2023-04-07T19:22:12.877Z,6.18
2023-04-07T19:24:41.030Z,7.22
2023-04-07T19:27:09.230Z,6.18
2023-04-07T19:29:37.197Z,6.50
2023-04-07T19:32:04.855Z,6.78
2023-04-07T19:34:32.825Z,7.03
2023-04-07T19:37:00.284Z,6.10
2023-04-07T19:39:27.781Z,7.25
2023-04-07T19:41:56.386Z,7.30
2023-04-07T19:44:23.968Z,7.55
2023-04-07T19:46:55.160Z,6.63
2023-04-07T19:49:22.907Z,7.22
2023-04-07T19:51:54.374Z,7.63
2023-04-07T19:54:22.509Z,8.90
2023-04-07T19:56:50.093Z,7.93
2023-04-07T19:59:17.503Z,8.07
2023-04-07T20:01:45.082Z,8.15
2023-04-07T20:04:12.777Z,9.38
2023-04-07T20:06:40.838Z,8.60
2023-04-07T20:09:08.516Z,9.13
2023-04-07T20:11:35.957Z,8.50
2023-04-07T20:14:03.451Z,8.20
2023-04-07T20:16:34.034Z,8.75
2023-04-07T20:19:01.732Z,8.85
2023-04-07T20:21:29.438Z,9.15
2023-04-07T20:23:56.960Z,8.68
2023-04-07T20:26:24.819Z,9.25
2023-04-07T20:28:52.502Z,8.60
2023-04-07T20:31:20.058Z,9.38
2023-04-07T20:33:47.607Z,9.60
2023-04-07T20:36:15.224Z,10.10
2023-04-07T20:38:44.194Z,9.30
2023-04-07T20:41:14.526Z,9.52
2023-04-07T20:43:42.066Z,10.32
2023-04-07T20:46:09.868Z,10.43
2023-04-07T20:48:38.464Z,9.65
2023-04-07T20:51:06.009Z,11.07
2023-04-07T20:53:33.579Z,10.23
2023-04-07T20:56:03.143Z,10.75
2023-04-07T20:58:30.867Z,10.35
2023-04-07T21:01:00.179Z,10.27
2023-04-07T21:03:28.444Z,11.85
2023-04-07T21:05:57.321Z,10.10
2023-04-07T21:08:24.795Z,10.73
2023-04-07T21:10:53.553Z,12.38
2023-04-07T21:13:22.726Z,12.95
2023-04-07T21:15:50.339Z,12.52
2023-04-07T21:18:19.178Z,13.57
2023-04-07T21:20:47.523Z,14.13
2023-04-07T21:23:15.179Z,14.05
2023-04-07T21:25:42.644Z,12.65
2023-04-07T21:28:10.241Z,12.20
2023-04-07T21:30:42.195Z,12.30
2023-04-07T21:33:10.124Z,12.95
2023-04-07T21:35:38.124Z,13.18
2023-04-07T21:38:05.990Z,13.13
2023-04-07T21:40:33.443Z,12.40
2023-04-07T21:43:01.034Z,12.02
2023-04-07T21:45:29.856Z,12.68
2023-04-07T21:47:57.605Z,12.95
2023-04-07T21:50:25.788Z,12.02
2023-04-07T21:52:53.891Z,11.65
2023-04-07T21:55:21.734Z,10.32
2023-04-07T21:57:50.403Z,11.40
2023-04-07T22:00:18.119Z,11.00
2023-04-07T22:02:45.865Z,10.50
2023-04-07T22:05:14.002Z,10.88
2023-04-07T22:07:41.475Z,10.10
2023-04-07T22:10:09.537Z,10.02
2023-04-07T22:12:37.125Z,8.77
2023-04-07T22:15:05.309Z,9.40
2023-04-07T22:17:32.908Z,9.00
2023-04-07T22:20:00.593Z,10.15
2023-04-07T22:22:28.115Z,9.73
2023-04-07T22:24:55.752Z,10.05
2023-04-07T22:27:23.410Z,9.93
2023-04-07T22:29:50.840Z,10.75
2023-04-07T22:32:18.388Z,9.25
2023-04-07T22:34:46.866Z,10.07
2023-04-07T22:37:14.394Z,9.68
2023-04-07T22:39:42.079Z,9.48
2023-04-07T22:42:09.524Z,9.43
2023-04-07T22:44:37.082Z,8.80
2023-04-07T22:47:04.807Z,9.05
2023-04-07T22:49:32.587Z,7.60
2023-04-07T22:52:00.240Z,8.02
2023-04-07T22:54:27.727Z,8.27
2023-04-07T22:56:55.192Z,8.93
2023-04-07T22:59:22.675Z,8.38
2023-04-07T23:01:50.251Z,7.53
2023-04-07T23:04:17.756Z,7.40
2023-04-07T23:06:45.294Z,7.35
2023-04-07T23:09:12.839Z,7.80
2023-04-07T23:11:40.354Z,7.63
2023-04-07T23:14:08.276Z,6.30
2023-04-07T23:16:36.228Z,6.90
2023-04-07T23:19:03.831Z,6.85
2023-04-07T23:21:32.457Z,6.20
2023-04-07T23:24:00.533Z,6.03
2023-04-07T23:26:28.231Z,6.47
2023-04-07T23:28:55.662Z,6.88
2023-04-07T23:31:23.341Z,5.55
2023-04-07T23:33:50.946Z,6.07
2023-04-07T23:36:18.483Z,5.15
2023-04-07T23:38:46.120Z,5.57
2023-04-07T23:41:13.630Z,4.95
2023-04-07T23:43:41.394Z,4.55
2023-04-07T23:46:08.899Z,4.95
2023-04-07T23:48:36.669Z,4.20
2023-04-07T23:51:04.279Z,4.07
2023-04-07T23:53:31.754Z,4.43
2023-04-07T23:55:59.373Z,4.40
2023-04-07T23:58:26.836Z,4.03
